createdAt,value
2018-07-08T00:00:06.846Z,71.46
2018-07-08T00:01:06.805Z,71.46
2018-07-08T00:02:06.785Z,71.59
2018-07-08T00:03:06.740Z,71.27
2018-07-08T00:04:06.747Z,72.32
2018-07-08T00:05:06.682Z,72.42
2018-07-08T00:06:06.672Z,72.23
2018-07-08T00:07:06.612Z,72.52
2018-07-08T00:08:06.595Z,73.09
2018-07-08T00:09:06.542Z,73.24
2018-07-08T00:10:06.514Z,74.20
2018-07-08T00:11:06.485Z,73.91
2018-07-08T00:12:06.451Z,74.49
2018-07-08T00:13:06.418Z,75.26
2018-07-08T00:14:06.387Z,76.12
2018-07-08T00:15:06.347Z,75.64
2018-07-08T00:16:06.316Z,76.21
2018-07-08T00:17:06.296Z,77.04
2018-07-08T00:18:06.249Z,76.65
2018-07-08T00:19:06.216Z,76.18
2018-07-08T00:20:06.191Z,76.84
2018-07-08T00:21:06.164Z,77.61
2018-07-08T00:22:06.115Z,77.33
2018-07-08T00:23:06.080Z,77.70
2018-07-08T00:24:06.096Z,77.61
2018-07-08T00:25:06.026Z,78.09
2018-07-08T00:26:05.985Z,77.80
2018-07-08T00:27:06.845Z,77.99
2018-07-08T00:28:05.921Z,78.19
2018-07-08T00:29:06.851Z,77.80
2018-07-08T00:30:05.864Z,77.90
2018-07-08T00:31:05.816Z,78.28
2018-07-08T00:32:05.797Z,77.80
2018-07-08T00:33:05.750Z,77.90
2018-07-08T00:34:05.719Z,77.99
2018-07-08T00:35:05.690Z,77.90
2018-07-08T00:36:05.656Z,78.19
2018-07-08T00:37:05.633Z,78.09
2018-07-08T00:38:05.608Z,77.99
2018-07-08T00:39:05.555Z,77.99
2018-07-08T00:40:05.553Z,78.28
2018-07-08T00:41:05.492Z,77.94
2018-07-08T00:42:05.459Z,77.84
2018-07-08T00:43:05.422Z,78.28
2018-07-08T00:44:05.394Z,78.09
2018-07-08T00:45:05.356Z,77.99
2018-07-08T00:46:05.321Z,77.99
2018-07-08T00:47:05.288Z,77.84
2018-07-08T00:48:05.257Z,78.22
2018-07-08T00:49:05.219Z,77.99
2018-07-08T00:50:05.247Z,78.57
2018-07-08T00:51:05.160Z,78.66
2018-07-08T00:52:05.154Z,78.47
2018-07-08T00:53:05.273Z,79.14
2018-07-08T00:54:05.070Z,79.14
2018-07-08T00:55:05.020Z,79.33
2018-07-08T00:56:04.988Z,79.43
2018-07-08T00:57:04.964Z,79.05
2018-07-08T00:58:04.953Z,79.52
2018-07-08T00:59:04.892Z,79.52
2018-07-08T01:00:04.879Z,79.33
2018-07-08T01:01:04.825Z,79.72
2018-07-08T01:02:04.809Z,79.81
2018-07-08T01:03:04.774Z,80.10
2018-07-08T01:04:04.723Z,80.00
2018-07-08T01:05:04.721Z,80.00
2018-07-08T01:06:04.656Z,79.81
2018-07-08T01:07:04.634Z,80.77
2018-07-08T01:08:04.593Z,80.67
2018-07-08T01:09:04.559Z,80.48
2018-07-08T01:10:04.543Z,80.77
2018-07-08T01:11:04.497Z,80.58
2018-07-08T01:12:04.481Z,81.05
2018-07-08T01:13:04.454Z,81.63
2018-07-08T01:14:04.388Z,80.67
2018-07-08T01:15:04.356Z,81.44
2018-07-08T01:16:04.336Z,81.30
2018-07-08T01:17:04.291Z,81.25
2018-07-08T01:18:04.285Z,81.82
2018-07-08T01:19:04.231Z,81.73
2018-07-08T01:20:04.196Z,81.88
2018-07-08T01:21:04.162Z,81.54
2018-07-08T01:22:04.126Z,81.59
2018-07-08T01:23:04.247Z,82.64
2018-07-08T01:24:04.093Z,82.17
2018-07-08T01:25:04.041Z,82.93
2018-07-08T01:26:04.261Z,83.22
2018-07-08T01:27:03.960Z,83.12
2018-07-08T01:28:03.922Z,83.40
2018-07-08T01:29:04.563Z,83.22
2018-07-08T01:30:03.857Z,83.50
2018-07-08T01:31:03.822Z,83.22
2018-07-08T01:32:03.801Z,84.08
2018-07-08T01:33:03.783Z,83.69
2018-07-08T01:34:03.745Z,83.69
2018-07-08T01:35:03.695Z,83.60
2018-07-08T01:36:03.657Z,84.36
2018-07-08T01:37:03.632Z,84.17
2018-07-08T01:38:03.895Z,84.75
2018-07-08T01:39:03.581Z,84.17
2018-07-08T01:40:03.536Z,84.17
2018-07-08T01:41:03.501Z,84.99
2018-07-08T01:42:03.456Z,85.61
2018-07-08T01:43:03.444Z,84.61
2018-07-08T01:44:03.417Z,84.89
2018-07-08T01:45:03.360Z,85.28
2018-07-08T01:46:03.330Z,85.18
2018-07-08T01:47:03.304Z,85.38
2018-07-08T01:48:03.291Z,85.85
2018-07-08T01:49:03.231Z,85.75
2018-07-08T01:50:03.203Z,85.66
2018-07-08T01:51:03.157Z,86.33
2018-07-08T01:52:03.128Z,86.23
2018-07-08T01:53:03.123Z,86.71
2018-07-08T01:54:03.059Z,86.43
2018-07-08T01:55:03.045Z,86.61
2018-07-08T01:56:03.249Z,86.61
2018-07-08T01:57:02.958Z,86.71
2018-07-08T01:58:02.921Z,87.38
2018-07-08T01:59:02.907Z,87.57
2018-07-08T02:00:02.889Z,87.19
2018-07-08T02:01:02.837Z,87.38
2018-07-08T02:02:02.815Z,87.95
2018-07-08T02:03:02.770Z,87.57
2018-07-08T02:04:02.727Z,87.76
2018-07-08T02:05:02.707Z,87.66
2018-07-08T02:06:02.656Z,88.15
2018-07-08T02:07:02.669Z,87.95
2018-07-08T02:08:02.620Z,87.95
2018-07-08T02:09:02.564Z,87.95
2018-07-08T02:10:02.530Z,87.76
2018-07-08T02:11:02.932Z,88.24
2018-07-08T02:12:02.477Z,88.15
2018-07-08T02:13:02.439Z,88.15
2018-07-08T02:14:02.387Z,88.72
2018-07-08T02:15:02.359Z,88.53
2018-07-08T02:16:02.322Z,88.62
2018-07-08T02:17:02.286Z,88.15
2018-07-08T02:18:02.247Z,88.15
2018-07-08T02:19:02.239Z,88.05
2018-07-08T02:20:02.221Z,89.01
2018-07-08T02:21:02.178Z,88.62
2018-07-08T02:22:02.135Z,88.05
2018-07-08T02:23:02.124Z,88.43
2018-07-08T02:24:02.270Z,88.34
2018-07-08T02:25:02.062Z,88.15
2018-07-08T02:26:02.028Z,87.76
2018-07-08T02:27:01.946Z,88.34
2018-07-08T02:28:01.932Z,88.34
2018-07-08T02:29:01.880Z,88.15
2018-07-08T02:30:01.876Z,87.86
2018-07-08T02:31:01.822Z,88.05
2018-07-08T02:32:01.807Z,88.43
2018-07-08T02:33:01.781Z,88.72
2018-07-08T02:34:01.719Z,88.34
2018-07-08T02:35:01.741Z,88.72
2018-07-08T02:36:01.653Z,89.01
2018-07-08T02:37:01.614Z,88.91
2018-07-08T02:38:01.575Z,89.20
2018-07-08T02:39:01.549Z,88.62
2018-07-08T02:40:01.512Z,89.58
2018-07-08T02:41:01.477Z,89.39
2018-07-08T02:42:01.446Z,89.77
2018-07-08T02:43:01.412Z,89.58
2018-07-08T02:44:01.382Z,89.10
2018-07-08T02:45:01.344Z,89.58
2018-07-08T02:46:01.317Z,89.20
2018-07-08T02:47:01.293Z,89.48
2018-07-08T02:48:01.249Z,89.58
2018-07-08T02:49:01.211Z,89.58
2018-07-08T02:50:01.174Z,89.58
2018-07-08T02:51:01.169Z,90.16
2018-07-08T02:52:01.109Z,89.96
2018-07-08T02:53:01.072Z,90.16
2018-07-08T02:54:01.039Z,89.77
2018-07-08T02:55:01.170Z,89.77
2018-07-08T02:56:00.983Z,89.77
2018-07-08T02:57:00.937Z,90.16
2018-07-08T02:58:00.933Z,89.63
2018-07-08T02:59:00.867Z,89.96
2018-07-08T03:00:00.842Z,89.92
2018-07-08T03:01:00.803Z,90.39
2018-07-08T03:02:00.775Z,90.11
2018-07-08T03:03:00.759Z,89.73
2018-07-08T03:04:00.708Z,88.96
2018-07-08T03:05:00.670Z,88.58
2018-07-08T03:06:00.649Z,89.63
2018-07-08T03:07:00.622Z,89.34
2018-07-08T03:08:00.576Z,90.39
2018-07-08T03:09:00.534Z,90.20
2018-07-08T03:10:00.500Z,90.78
2018-07-08T03:11:00.481Z,91.25
2018-07-08T03:12:00.449Z,91.40
2018-07-08T03:13:00.401Z,91.30
2018-07-08T03:14:00.368Z,91.78
2018-07-08T03:15:00.330Z,91.78
2018-07-08T03:16:00.322Z,92.64
2018-07-08T03:17:00.318Z,92.83
2018-07-08T03:18:00.239Z,93.41
2018-07-08T03:19:00.210Z,93.98
2018-07-08T03:20:00.166Z,94.17
2018-07-08T03:21:00.147Z,94.55
2018-07-08T03:22:00.129Z,94.36
2018-07-08T03:23:00.062Z,94.65
2018-07-08T03:24:00.088Z,94.84
2018-07-08T03:24:59.996Z,94.65
2018-07-08T03:25:59.957Z,94.93
2018-07-08T03:26:59.947Z,94.93
2018-07-08T03:27:59.890Z,95.12
2018-07-08T03:28:59.857Z,94.65
2018-07-08T03:29:59.818Z,94.46
2018-07-08T03:30:59.788Z,94.36
2018-07-08T03:31:59.759Z,94.17
2018-07-08T03:32:59.722Z,93.98
2018-07-08T03:33:59.698Z,94.17
2018-07-08T03:34:59.680Z,94.65
2018-07-08T03:35:59.644Z,94.36
2018-07-08T03:36:59.579Z,93.98
2018-07-08T03:37:59.544Z,94.65
2018-07-08T03:38:59.517Z,94.55
2018-07-08T03:39:59.495Z,94.27
2018-07-08T03:40:59.474Z,94.36
2018-07-08T03:41:59.413Z,94.12
2018-07-08T03:42:59.378Z,93.84
2018-07-08T03:43:59.355Z,93.84
2018-07-08T03:44:59.349Z,93.65
2018-07-08T03:45:59.297Z,93.84
2018-07-08T03:46:59.244Z,93.65
2018-07-08T03:47:59.223Z,93.74
2018-07-08T03:48:59.174Z,93.16
2018-07-08T03:49:59.152Z,93.36
2018-07-08T03:50:59.120Z,92.97
2018-07-08T03:51:59.079Z,93.07
2018-07-08T03:52:59.038Z,92.69
2018-07-08T03:53:59.003Z,92.79
2018-07-08T03:54:58.980Z,93.16
2018-07-08T03:55:58.940Z,93.45
2018-07-08T03:56:58.902Z,92.79
2018-07-08T03:57:58.872Z,92.88
2018-07-08T03:58:58.855Z,93.16
2018-07-08T03:59:58.806Z,92.88
2018-07-08T04:00:58.770Z,92.88
2018-07-08T04:01:58.758Z,92.69
2018-07-08T04:02:59.383Z,92.50
2018-07-08T04:03:58.681Z,92.30
2018-07-08T04:04:58.634Z,92.30
2018-07-08T04:05:59.420Z,91.74
2018-07-08T04:06:58.568Z,91.49
2018-07-08T04:07:58.547Z,91.35
2018-07-08T04:08:58.538Z,91.39
2018-07-08T04:09:58.471Z,91.59
2018-07-08T04:10:58.435Z,91.68
2018-07-08T04:11:58.394Z,91.11
2018-07-08T04:12:58.377Z,90.53
2018-07-08T04:13:58.326Z,90.63
2018-07-08T04:14:58.338Z,90.53
2018-07-08T04:15:58.263Z,90.63
2018-07-08T04:16:58.227Z,90.25
2018-07-08T04:17:58.208Z,91.02
2018-07-08T04:18:58.200Z,89.58
2018-07-08T04:19:58.137Z,90.53
2018-07-08T04:20:58.096Z,90.48
2018-07-08T04:21:58.058Z,90.39
2018-07-08T04:22:58.043Z,90.58
2018-07-08T04:23:57.993Z,90.30
2018-07-08T04:24:57.985Z,89.62
2018-07-08T04:25:57.946Z,89.24
2018-07-08T04:26:57.897Z,88.95
2018-07-08T04:27:57.864Z,89.34
2018-07-08T04:28:57.826Z,88.19
2018-07-08T04:29:57.797Z,88.43
2018-07-08T04:30:57.786Z,87.76
2018-07-08T04:31:57.761Z,87.95
2018-07-08T04:32:57.699Z,87.27
2018-07-08T04:33:57.684Z,87.18
2018-07-08T04:34:57.664Z,86.61
2018-07-08T04:35:57.599Z,86.80
2018-07-08T04:36:57.581Z,86.17
2018-07-08T04:37:57.554Z,86.27
2018-07-08T04:38:57.530Z,86.08
2018-07-08T04:39:57.754Z,85.31
2018-07-08T04:40:57.429Z,85.60
2018-07-08T04:41:57.397Z,85.02
2018-07-08T04:42:57.384Z,84.74
2018-07-08T04:43:57.737Z,84.92
2018-07-08T04:44:57.300Z,84.49
2018-07-08T04:45:57.273Z,84.45
2018-07-08T04:46:57.252Z,84.49
2018-07-08T04:47:57.236Z,84.30
2018-07-08T04:48:57.169Z,84.20
2018-07-08T04:49:57.146Z,84.39
2018-07-08T04:50:57.125Z,84.39
2018-07-08T04:51:57.091Z,83.53
2018-07-08T04:52:57.054Z,84.01
2018-07-08T04:53:57.000Z,84.01
2018-07-08T04:54:57.117Z,83.72
2018-07-08T04:55:56.981Z,83.44
2018-07-08T04:56:56.902Z,83.34
2018-07-08T04:57:57.403Z,82.81
2018-07-08T04:58:56.865Z,83.19
2018-07-08T04:59:56.836Z,83.48
2018-07-08T05:00:56.840Z,83.19
2018-07-08T05:01:56.739Z,83.86
2018-07-08T05:02:56.741Z,83.48
2018-07-08T05:03:56.680Z,83.09
2018-07-08T05:04:56.650Z,83.00
2018-07-08T05:05:56.652Z,83.61
2018-07-08T05:06:56.581Z,83.52
2018-07-08T05:07:56.604Z,83.14
2018-07-08T05:08:56.518Z,83.14
2018-07-08T05:09:56.516Z,83.61
2018-07-08T05:10:56.451Z,83.52
2018-07-08T05:11:56.421Z,83.18
2018-07-08T05:12:56.396Z,82.79
2018-07-08T05:13:56.357Z,82.12
2018-07-08T05:14:56.331Z,81.64
2018-07-08T05:15:56.297Z,81.64
2018-07-08T05:16:56.256Z,80.78
2018-07-08T05:17:56.226Z,80.11
2018-07-08T05:18:56.196Z,79.19
2018-07-08T05:19:56.160Z,79.57
2018-07-08T05:20:56.136Z,78.90
2018-07-08T05:21:56.103Z,77.88
2018-07-08T05:22:56.067Z,78.17
2018-07-08T05:23:56.039Z,77.01
2018-07-08T05:24:56.011Z,76.92
2018-07-08T05:25:55.982Z,77.88
2018-07-08T05:26:55.946Z,76.15
2018-07-08T05:27:55.914Z,76.73
2018-07-08T05:28:55.876Z,76.57
2018-07-08T05:29:55.895Z,75.90
2018-07-08T05:30:55.812Z,76.09
2018-07-08T05:31:55.787Z,75.90
2018-07-08T05:32:55.755Z,75.81
2018-07-08T05:33:55.717Z,75.81
2018-07-08T05:34:55.687Z,75.52
2018-07-08T05:35:55.654Z,75.71
2018-07-08T05:36:55.621Z,74.85
2018-07-08T05:37:55.606Z,74.75
2018-07-08T05:38:55.558Z,74.55
2018-07-08T05:39:55.765Z,74.94
2018-07-08T05:40:55.493Z,75.07
2018-07-08T05:41:55.464Z,73.06
2018-07-08T05:42:55.432Z,74.11
2018-07-08T05:43:55.408Z,73.54
2018-07-08T05:44:55.398Z,74.21
2018-07-08T05:45:55.779Z,73.63
2018-07-08T05:46:55.309Z,73.19
2018-07-08T05:47:55.281Z,72.42
2018-07-08T05:48:55.244Z,72.61
2018-07-08T05:49:55.217Z,71.36
2018-07-08T05:50:55.200Z,70.68
2018-07-08T05:51:55.159Z,71.08
2018-07-08T05:52:55.125Z,70.78
2018-07-08T05:53:55.088Z,71.08
2018-07-08T05:54:55.060Z,71.17
2018-07-08T05:55:55.026Z,71.01
2018-07-08T05:56:54.996Z,71.01
2018-07-08T05:57:54.965Z,70.98
2018-07-08T05:58:54.955Z,72.03
2018-07-08T05:59:54.909Z,71.94
2018-07-08T06:00:54.876Z,71.30
2018-07-08T06:01:54.844Z,70.92
2018-07-08T06:02:54.811Z,70.43
2018-07-08T06:03:54.781Z,71.30
2018-07-08T06:04:54.749Z,70.62
2018-07-08T06:05:54.716Z,71.20
2018-07-08T06:06:54.695Z,70.92
2018-07-08T06:07:54.657Z,70.92
2018-07-08T06:08:54.674Z,70.82
2018-07-08T06:09:54.595Z,70.82
2018-07-08T06:10:54.563Z,70.72
2018-07-08T06:11:54.845Z,70.43
2018-07-08T06:12:54.512Z,69.76
2018-07-08T06:13:54.474Z,69.57
2018-07-08T06:14:54.439Z,68.51
2018-07-08T06:15:54.412Z,68.26
2018-07-08T06:16:54.421Z,68.26
2018-07-08T06:17:54.344Z,68.06
2018-07-08T06:18:54.327Z,68.54
2018-07-08T06:19:54.288Z,67.90
2018-07-08T06:20:54.257Z,67.42
2018-07-08T06:21:54.224Z,66.20
2018-07-08T06:22:54.194Z,66.20
2018-07-08T06:23:54.162Z,65.53
2018-07-08T06:24:54.131Z,65.37
2018-07-08T06:25:54.149Z,65.17
2018-07-08T06:26:54.072Z,64.79
2018-07-08T06:27:54.047Z,64.15
2018-07-08T06:28:54.012Z,62.79
2018-07-08T06:29:53.979Z,62.51
2018-07-08T06:30:54.466Z,61.93
2018-07-08T06:31:54.449Z,61.28
2018-07-08T06:32:53.891Z,60.80
2018-07-08T06:33:53.859Z,60.86
2018-07-08T06:34:53.831Z,60.38
2018-07-08T06:35:53.804Z,60.28
2018-07-08T06:36:53.784Z,59.90
2018-07-08T06:37:53.742Z,60.38
2018-07-08T06:38:53.716Z,60.28
2018-07-08T06:39:53.682Z,60.89
2018-07-08T06:40:53.654Z,59.74
2018-07-08T06:41:53.620Z,59.06
2018-07-08T06:42:53.591Z,59.06
2018-07-08T06:43:53.564Z,59.35
2018-07-08T06:44:53.538Z,58.97
2018-07-08T06:45:53.502Z,58.22
2018-07-08T06:46:53.474Z,57.06
2018-07-08T06:47:53.446Z,57.54
2018-07-08T06:48:53.416Z,56.48
2018-07-08T06:49:53.393Z,56.20
2018-07-08T06:50:53.394Z,56.87
2018-07-08T06:51:53.374Z,57.16
2018-07-08T06:52:53.298Z,56.84
2018-07-08T06:53:53.266Z,57.45
2018-07-08T06:54:53.238Z,56.87
2018-07-08T06:55:53.238Z,57.06
2018-07-08T06:56:53.193Z,56.39
2018-07-08T06:57:53.162Z,55.33
2018-07-08T06:58:53.132Z,55.65
2018-07-08T06:59:53.092Z,55.26
2018-07-08T07:00:53.065Z,55.26
2018-07-08T07:01:53.141Z,55.16
2018-07-08T07:02:53.004Z,55.13
2018-07-08T07:03:52.977Z,55.74
2018-07-08T07:04:52.954Z,55.45
2018-07-08T07:05:52.921Z,55.16
2018-07-08T07:06:52.889Z,54.68
2018-07-08T07:07:52.861Z,53.55
2018-07-08T07:08:52.828Z,52.45
2018-07-08T07:09:52.800Z,52.75
2018-07-08T07:10:52.786Z,52.77
2018-07-08T07:11:52.742Z,53.74
2018-07-08T07:12:52.719Z,53.25
2018-07-08T07:13:52.743Z,52.67
2018-07-08T07:14:52.665Z,52.00
2018-07-08T07:15:52.626Z,52.09
2018-07-08T07:16:52.628Z,51.32
2018-07-08T07:17:52.572Z,52.19
2018-07-08T07:18:52.545Z,51.03
2018-07-08T07:19:53.044Z,51.13
2018-07-08T07:20:52.488Z,50.93
2018-07-08T07:21:52.462Z,50.93
2018-07-08T07:22:52.445Z,52.58
2018-07-08T07:23:52.401Z,52.41
2018-07-08T07:24:52.366Z,51.15
2018-07-08T07:25:52.375Z,50.67
2018-07-08T07:26:52.316Z,50.89
2018-07-08T07:27:52.291Z,50.40
2018-07-08T07:28:52.252Z,51.01
2018-07-08T07:29:52.342Z,50.82
2018-07-08T07:30:52.196Z,50.40
2018-07-08T07:31:52.170Z,49.24
2018-07-08T07:32:52.143Z,47.81
2018-07-08T07:33:52.142Z,46.56
2018-07-08T07:34:52.081Z,46.66
2018-07-08T07:35:52.056Z,46.46
2018-07-08T07:36:52.031Z,47.55
2018-07-08T07:37:52.000Z,48.01
2018-07-08T07:38:52.095Z,48.20
2018-07-08T07:39:51.945Z,47.84
2018-07-08T07:40:51.921Z,48.30
2018-07-08T07:41:51.884Z,49.07
2018-07-08T07:42:51.856Z,48.71
2018-07-08T07:43:51.834Z,48.39
2018-07-08T07:44:51.801Z,48.22
2018-07-08T07:45:51.781Z,48.42
2018-07-08T07:46:51.747Z,48.59
2018-07-08T07:47:51.745Z,48.59
2018-07-08T07:48:51.688Z,48.52
2018-07-08T07:49:51.660Z,48.52
2018-07-08T07:50:51.631Z,47.74
2018-07-08T07:51:51.604Z,47.55
2018-07-08T07:52:51.576Z,46.67
2018-07-08T07:53:51.557Z,46.87
2018-07-08T07:54:51.526Z,46.58
2018-07-08T07:55:51.496Z,46.60
2018-07-08T07:56:51.467Z,45.64
2018-07-08T07:57:51.483Z,45.15
2018-07-08T07:58:51.440Z,45.83
2018-07-08T07:59:51.384Z,45.71
2018-07-08T08:00:51.357Z,46.19
2018-07-08T08:01:51.995Z,46.19
2018-07-08T08:02:51.336Z,45.44
2018-07-08T08:03:51.276Z,44.96
2018-07-08T08:04:51.247Z,45.65
2018-07-08T08:05:51.218Z,45.15
2018-07-08T08:06:51.193Z,45.17
2018-07-08T08:07:51.171Z,44.10
2018-07-08T08:08:51.145Z,44.98
2018-07-08T08:09:51.118Z,43.93
2018-07-08T08:10:51.310Z,43.16
2018-07-08T08:11:51.067Z,42.96
2018-07-08T08:12:51.333Z,42.57
2018-07-08T08:13:51.043Z,42.67
2018-07-08T08:14:50.980Z,42.40
2018-07-08T08:15:50.954Z,42.50
2018-07-08T08:16:50.925Z,42.40
2018-07-08T08:17:50.909Z,42.30
2018-07-08T08:18:50.870Z,42.21
2018-07-08T08:19:50.972Z,42.61
2018-07-08T08:20:50.825Z,41.36
2018-07-08T08:21:50.798Z,41.08
2018-07-08T08:22:50.765Z,41.18
2018-07-08T08:23:50.737Z,40.79
2018-07-08T08:24:51.714Z,39.84
2018-07-08T08:25:50.688Z,38.87
2018-07-08T08:26:50.805Z,38.70
2018-07-08T08:27:50.639Z,38.21
2018-07-08T08:28:50.611Z,38.21
2018-07-08T08:29:50.586Z,38.62
2018-07-08T08:30:50.592Z,38.50
2018-07-08T08:31:50.536Z,38.42
2018-07-08T08:32:50.572Z,37.45
2018-07-08T08:33:50.481Z,37.85
2018-07-08T08:34:50.458Z,37.16
2018-07-08T08:35:50.431Z,37.08
2018-07-08T08:36:50.411Z,37.37
2018-07-08T08:37:50.383Z,35.99
2018-07-08T08:38:50.356Z,36.00
2018-07-08T08:39:50.331Z,35.05
2018-07-08T08:40:50.314Z,35.16
2018-07-08T08:41:50.279Z,35.16
2018-07-08T08:42:50.257Z,34.97
2018-07-08T08:43:50.234Z,35.16
2018-07-08T08:44:50.207Z,34.39
2018-07-08T08:45:50.232Z,35.16
2018-07-08T08:46:50.158Z,35.18
2018-07-08T08:47:50.153Z,35.65
2018-07-08T08:48:50.105Z,34.59
2018-07-08T08:49:50.083Z,34.69
2018-07-08T08:50:50.060Z,33.73
2018-07-08T08:51:50.035Z,33.17
2018-07-08T08:52:50.034Z,32.31
2018-07-08T08:53:49.986Z,31.52
2018-07-08T08:54:49.963Z,30.93
2018-07-08T08:55:49.936Z,31.60
2018-07-08T08:56:49.913Z,31.30
2018-07-08T08:57:50.051Z,31.43
2018-07-08T08:58:49.869Z,32.11
2018-07-08T08:59:49.841Z,31.52
2018-07-08T09:00:49.836Z,30.26
2018-07-08T09:01:49.794Z,30.08
2018-07-08T09:02:49.776Z,30.74
2018-07-08T09:03:49.815Z,30.45
2018-07-08T09:04:49.720Z,30.08
2018-07-08T09:05:49.692Z,30.16
2018-07-08T09:06:49.676Z,30.38
2018-07-08T09:07:49.648Z,30.38
2018-07-08T09:08:49.617Z,30.29
2018-07-08T09:09:49.595Z,29.31
2018-07-08T09:10:49.580Z,29.98
2018-07-08T09:11:49.548Z,30.68
2018-07-08T09:12:49.528Z,29.61
2018-07-08T09:13:49.504Z,29.14
2018-07-08T09:14:49.478Z,28.55
2018-07-08T09:15:49.450Z,29.34
2018-07-08T09:16:49.429Z,29.04
2018-07-08T09:17:49.406Z,28.55
2018-07-08T09:18:49.378Z,29.24
2018-07-08T09:19:49.368Z,29.34
2018-07-08T09:20:49.361Z,29.16
2018-07-08T09:21:49.308Z,28.55
2018-07-08T09:22:49.286Z,28.65
2018-07-08T09:23:49.305Z,28.28
2018-07-08T09:24:49.238Z,28.29
2018-07-08T09:25:49.214Z,28.39
2018-07-08T09:26:49.193Z,28.29
2018-07-08T09:27:49.264Z,28.29
2018-07-08T09:28:49.138Z,28.00
2018-07-08T09:29:49.117Z,28.29
2018-07-08T09:30:49.091Z,27.10
2018-07-08T09:31:49.071Z,27.31
2018-07-08T09:32:49.047Z,26.34
2018-07-08T09:33:49.023Z,26.73
2018-07-08T09:34:49.061Z,26.73
2018-07-08T09:35:48.981Z,27.03
2018-07-08T09:36:48.946Z,26.95
2018-07-08T09:37:48.927Z,26.65
2018-07-08T09:38:48.954Z,25.29
2018-07-08T09:39:48.878Z,26.27
2018-07-08T09:40:48.853Z,26.07
2018-07-08T09:41:48.829Z,26.48
2018-07-08T09:42:48.805Z,25.18
2018-07-08T09:43:48.788Z,25.68
2018-07-08T09:44:48.763Z,25.50
2018-07-08T09:45:48.737Z,25.20
2018-07-08T09:46:48.712Z,24.91
2018-07-08T09:47:48.690Z,25.50
2018-07-08T09:48:48.667Z,25.20
2018-07-08T09:49:48.645Z,25.49
2018-07-08T09:50:48.617Z,26.05
2018-07-08T09:51:48.600Z,26.06
2018-07-08T09:52:48.576Z,26.37
2018-07-08T09:53:48.544Z,25.87
2018-07-08T09:54:48.526Z,25.96
2018-07-08T09:55:48.504Z,26.16
2018-07-08T09:56:48.477Z,26.26
2018-07-08T09:57:48.453Z,26.46
2018-07-08T09:58:48.462Z,26.17
2018-07-08T09:59:48.415Z,25.49
2018-07-08T10:00:48.382Z,26.75
2018-07-08T10:01:48.359Z,26.37
2018-07-08T10:02:48.337Z,26.46
2018-07-08T10:03:48.309Z,27.14
2018-07-08T10:04:48.317Z,27.55
2018-07-08T10:05:48.272Z,27.62
2018-07-08T10:06:48.240Z,26.64
2018-07-08T10:07:48.219Z,27.44
2018-07-08T10:08:48.255Z,27.42
2018-07-08T10:09:48.167Z,27.34
2018-07-08T10:10:48.190Z,27.25
2018-07-08T10:11:48.120Z,27.04
2018-07-08T10:12:48.207Z,26.84
2018-07-08T10:13:48.150Z,27.81
2018-07-08T10:14:48.052Z,28.08
2018-07-08T10:15:48.030Z,28.65
2018-07-08T10:16:48.005Z,29.44
2018-07-08T10:17:48.024Z,29.61
2018-07-08T10:18:47.962Z,29.99
2018-07-08T10:19:47.993Z,30.20
2018-07-08T10:20:47.919Z,29.84
2018-07-08T10:21:47.886Z,29.66
2018-07-08T10:22:47.865Z,28.78
2018-07-08T10:23:47.836Z,28.20
2018-07-08T10:24:47.813Z,27.84
2018-07-08T10:25:47.794Z,27.17
2018-07-08T10:26:47.770Z,26.40
2018-07-08T10:27:47.744Z,25.71
2018-07-08T10:28:47.725Z,26.11
2018-07-08T10:29:47.705Z,27.18
2018-07-08T10:30:47.676Z,26.78
2018-07-08T10:31:47.650Z,26.68
2018-07-08T10:32:47.628Z,27.55
2018-07-08T10:33:47.599Z,27.35
2018-07-08T10:34:47.575Z,26.89
2018-07-08T10:35:47.558Z,25.23
2018-07-08T10:36:47.540Z,26.03
2018-07-08T10:37:47.506Z,25.34
2018-07-08T10:38:47.486Z,26.12
2018-07-08T10:39:47.464Z,25.24
2018-07-08T10:40:47.439Z,25.90
2018-07-08T10:41:47.415Z,26.51
2018-07-08T10:42:47.397Z,26.59
2018-07-08T10:43:47.367Z,25.84
2018-07-08T10:44:47.345Z,25.65
2018-07-08T10:45:47.324Z,23.79
2018-07-08T10:46:47.298Z,24.60
2018-07-08T10:47:47.278Z,24.79
2018-07-08T10:48:47.255Z,25.07
2018-07-08T10:49:47.488Z,25.18
2018-07-08T10:50:47.206Z,23.14
2018-07-08T10:51:47.181Z,23.80
2018-07-08T10:52:47.156Z,24.86
2018-07-08T10:53:47.139Z,24.97
2018-07-08T10:54:47.108Z,24.85
2018-07-08T10:55:47.087Z,25.84
2018-07-08T10:56:47.065Z,25.26
2018-07-08T10:57:47.057Z,25.33
2018-07-08T10:58:47.016Z,26.42
2018-07-08T10:59:46.999Z,25.45
2018-07-08T11:00:46.975Z,25.38
2018-07-08T11:01:46.975Z,24.80
2018-07-08T11:02:46.926Z,24.62
2018-07-08T11:03:46.904Z,24.82
2018-07-08T11:04:46.877Z,23.83
2018-07-08T11:05:46.861Z,24.53
2018-07-08T11:06:46.831Z,23.54
2018-07-08T11:07:46.843Z,22.67
2018-07-08T11:08:46.783Z,22.97
2018-07-08T11:09:46.768Z,22.78
2018-07-08T11:10:46.794Z,22.56
2018-07-08T11:11:46.717Z,23.44
2018-07-08T11:12:46.695Z,24.18
2018-07-08T11:13:46.684Z,24.88
2018-07-08T11:14:46.649Z,25.20
2018-07-08T11:15:46.622Z,25.49
2018-07-08T11:16:46.600Z,24.44
2018-07-08T11:17:46.578Z,24.62
2018-07-08T11:18:46.558Z,24.30
2018-07-08T11:19:46.529Z,23.25
2018-07-08T11:20:46.548Z,22.89
2018-07-08T11:21:46.487Z,22.08
2018-07-08T11:22:46.465Z,21.98
2018-07-08T11:23:46.439Z,22.88
2018-07-08T11:24:46.433Z,22.19
2018-07-08T11:25:46.394Z,21.72
2018-07-08T11:26:46.372Z,22.30
2018-07-08T11:27:46.354Z,22.00
2018-07-08T11:28:46.331Z,22.67
2018-07-08T11:29:46.313Z,22.66
2018-07-08T11:30:46.283Z,23.14
2018-07-08T11:31:46.259Z,23.43
2018-07-08T11:32:46.307Z,23.71
2018-07-08T11:33:46.211Z,23.55
2018-07-08T11:34:46.309Z,22.66
2018-07-08T11:35:46.168Z,22.77
2018-07-08T11:36:46.143Z,23.43
2018-07-08T11:37:46.117Z,21.57
2018-07-08T11:38:46.096Z,23.06
2018-07-08T11:39:46.073Z,22.89
2018-07-08T11:40:46.060Z,22.64
2018-07-08T11:41:46.024Z,23.93
2018-07-08T11:42:46.002Z,24.51
2018-07-08T11:43:45.983Z,25.08
2018-07-08T11:44:45.957Z,24.97
2018-07-08T11:45:45.940Z,24.79
2018-07-08T11:46:45.924Z,23.54
2018-07-08T11:47:45.891Z,23.44
2018-07-08T11:48:45.867Z,23.36
2018-07-08T11:49:45.849Z,23.52
2018-07-08T11:50:45.822Z,24.19
2018-07-08T11:51:45.795Z,23.69
2018-07-08T11:52:45.780Z,24.69
2018-07-08T11:53:45.783Z,24.02
2018-07-08T11:54:45.750Z,22.56
2018-07-08T11:55:45.704Z,21.90
2018-07-08T11:56:45.684Z,23.37
2018-07-08T11:57:45.656Z,22.58
2018-07-08T11:58:45.639Z,22.03
2018-07-08T11:59:45.624Z,20.76
2018-07-08T12:00:45.596Z,20.97
2018-07-08T12:01:45.622Z,21.33
2018-07-08T12:02:45.547Z,21.18
2018-07-08T12:03:45.522Z,23.20
2018-07-08T12:04:45.497Z,24.30
2018-07-08T12:05:45.474Z,23.53
2018-07-08T12:06:45.461Z,23.46
2018-07-08T12:07:45.425Z,22.70
2018-07-08T12:08:45.435Z,21.82
2018-07-08T12:09:45.386Z,22.28
2018-07-08T12:10:45.360Z,22.09
2018-07-08T12:11:45.338Z,22.08
2018-07-08T12:12:45.318Z,22.75
2018-07-08T12:13:45.301Z,23.33
2018-07-08T12:14:45.265Z,24.29
2018-07-08T12:15:45.249Z,24.88
2018-07-08T12:16:45.325Z,24.04
2018-07-08T12:17:45.193Z,23.28
2018-07-08T12:18:45.242Z,22.80
2018-07-08T12:19:45.201Z,21.71
2018-07-08T12:20:45.129Z,21.33
2018-07-08T12:21:45.104Z,21.53
2018-07-08T12:22:45.081Z,21.05
2018-07-08T12:23:45.065Z,20.06
2018-07-08T12:24:45.045Z,20.95
2018-07-08T12:25:45.013Z,20.76
2018-07-08T12:26:45.585Z,21.05
2018-07-08T12:27:45.687Z,21.44
2018-07-08T12:28:44.949Z,20.97
2018-07-08T12:29:44.924Z,22.11
2018-07-08T12:30:44.901Z,22.08
2018-07-08T12:31:44.882Z,23.00
2018-07-08T12:32:44.849Z,24.65
2018-07-08T12:33:44.834Z,25.62
2018-07-08T12:34:44.803Z,26.01
2018-07-08T12:35:44.786Z,24.96
2018-07-08T12:36:44.799Z,24.29
2018-07-08T12:37:44.737Z,24.88
2018-07-08T12:38:44.710Z,24.21
2018-07-08T12:39:44.691Z,23.46
2018-07-08T12:40:44.666Z,23.55
2018-07-08T12:41:44.638Z,22.56
2018-07-08T12:42:44.616Z,23.07
2018-07-08T12:43:44.599Z,21.98
2018-07-08T12:44:44.751Z,22.19
2018-07-08T12:45:44.547Z,21.61
2018-07-08T12:46:44.527Z,21.82
2018-07-08T12:47:44.504Z,20.45
2018-07-08T12:48:44.479Z,21.04
2018-07-08T12:49:44.459Z,19.96
2018-07-08T12:50:44.445Z,20.76
2018-07-08T12:51:44.431Z,20.29